createdAt,value
2022-11-04T00:02:03.072Z,12.05
2022-11-04T00:04:29.877Z,13.55
2022-11-04T00:06:57.350Z,22.95
2022-11-04T00:09:26.887Z,17.70
2022-11-04T00:12:12.372Z,14.13
2022-11-04T00:14:38.746Z,9.82
2022-11-04T00:17:22.906Z,14.98
2022-11-04T00:20:12.823Z,13.23
2022-11-04T00:22:59.415Z,14.13
2022-11-04T00:25:44.912Z,16.10
2022-11-04T00:28:37.656Z,11.45
2022-11-04T00:31:25.795Z,11.52
2022-11-04T00:33:54.078Z,11.65
2022-11-04T00:36:21.216Z,11.40
2022-11-04T00:38:47.653Z,14.68
2022-11-04T00:41:26.465Z,15.20
2022-11-04T00:43:53.730Z,12.23
2022-11-04T00:46:20.362Z,16.10
2022-11-04T00:48:46.983Z,13.70
2022-11-04T00:53:44.771Z,16.02
2022-11-04T00:56:11.189Z,16.23
2022-11-04T00:58:37.597Z,15.80
2022-11-04T01:01:08.998Z,11.18
2022-11-04T01:03:35.864Z,13.93
2022-11-04T01:06:02.382Z,13.98
2022-11-04T01:08:28.859Z,14.15
2022-11-04T01:10:55.259Z,12.88
2022-11-04T01:13:21.646Z,26.73
2022-11-04T01:15:48.027Z,18.30
2022-11-04T01:18:14.493Z,21.42
2022-11-04T01:20:40.889Z,15.02
2022-11-04T01:23:07.278Z,22.88
2022-11-04T01:25:33.733Z,22.60
2022-11-04T01:28:00.209Z,20.00
2022-11-04T01:30:26.632Z,18.92
2022-11-04T01:32:53.025Z,25.55
2022-11-04T01:35:19.433Z,18.92
2022-11-04T01:37:45.842Z,23.85
2022-11-04T01:40:12.421Z,19.85
2022-11-04T01:42:38.781Z,17.60
2022-11-04T01:45:05.887Z,22.02
2022-11-04T01:47:36.280Z,15.35
2022-11-04T01:50:16.013Z,19.63
2022-11-04T01:53:07.152Z,16.35
2022-11-04T01:55:35.255Z,19.60
2022-11-04T01:58:05.771Z,19.48
2022-11-04T02:00:32.984Z,22.35
2022-11-04T02:03:03.039Z,16.88
2022-11-04T02:05:30.456Z,21.77
2022-11-04T02:07:58.446Z,20.48
2022-11-04T02:10:27.310Z,15.85
2022-11-04T02:12:55.140Z,18.35
2022-11-04T02:15:39.838Z,20.90
2022-11-04T02:18:14.066Z,17.10
2022-11-04T02:21:09.082Z,14.88
2022-11-04T02:24:06.310Z,13.45
2022-11-04T02:26:38.649Z,16.67
2022-11-04T02:29:16.925Z,12.82
2022-11-04T02:32:04.642Z,17.38
2022-11-04T02:34:55.893Z,15.35
2022-11-04T02:40:15.673Z,16.13
2022-11-04T02:43:37.564Z,12.77
2022-11-04T02:46:30.729Z,11.70
2022-11-04T02:49:06.488Z,14.25
2022-11-04T02:51:37.408Z,16.17
2022-11-04T02:54:20.823Z,16.33
2022-11-04T02:56:49.951Z,14.35
2022-11-04T02:59:40.914Z,16.13
2022-11-04T03:02:10.834Z,15.68
2022-11-04T03:04:46.362Z,13.60
2022-11-04T03:07:15.555Z,13.68
2022-11-04T03:09:47.981Z,15.05
2022-11-04T03:12:18.196Z,19.98
2022-11-04T03:14:52.382Z,12.80
2022-11-04T03:17:23.329Z,15.13
2022-11-04T03:20:00.351Z,14.00
2022-11-04T03:22:31.245Z,10.45
2022-11-04T03:24:57.759Z,12.70
2022-11-04T03:27:30.194Z,12.25
2022-11-04T03:30:05.163Z,8.50
2022-11-04T03:32:44.946Z,10.63
2022-11-04T03:35:12.543Z,24.00
2022-11-04T03:37:39.025Z,11.10
2022-11-04T03:40:06.179Z,16.27
2022-11-04T03:42:35.136Z,15.25
2022-11-04T03:45:01.626Z,19.38
2022-11-04T03:47:29.684Z,18.20
2022-11-04T03:50:18.213Z,18.05
2022-11-04T03:52:44.822Z,14.02
2022-11-04T03:55:11.670Z,23.80
2022-11-04T03:57:47.169Z,18.38
2022-11-04T04:00:16.273Z,15.30
2022-11-04T04:02:59.962Z,17.25
2022-11-04T04:05:28.128Z,18.85
2022-11-04T04:08:03.726Z,18.27
2022-11-04T04:10:42.275Z,12.82
2022-11-04T04:13:11.551Z,17.08
2022-11-04T04:15:44.400Z,18.77
2022-11-04T04:18:13.653Z,9.70
2022-11-04T04:20:40.823Z,25.80
2022-11-04T04:23:33.825Z,21.42
2022-11-04T04:26:21.319Z,15.68
2022-11-04T04:28:48.587Z,25.38
2022-11-04T04:31:35.756Z,12.70
2022-11-04T04:34:02.960Z,17.70
2022-11-04T04:36:30.949Z,16.77
2022-11-04T04:39:15.926Z,15.43
2022-11-04T04:42:00.982Z,20.98
2022-11-04T04:44:47.079Z,16.50
2022-11-04T04:47:19.827Z,14.88
2022-11-04T04:49:56.221Z,22.55
2022-11-04T04:52:24.718Z,21.02
2022-11-04T04:54:51.197Z,15.60
2022-11-04T04:57:17.740Z,19.63
2022-11-04T04:59:44.111Z,18.52
2022-11-04T05:02:10.760Z,25.27
2022-11-04T05:04:37.365Z,21.77
2022-11-04T05:07:03.812Z,18.77
2022-11-04T05:09:30.201Z,28.27
2022-11-04T05:11:56.597Z,29.92
2022-11-04T05:14:22.979Z,13.68
2022-11-04T05:16:49.389Z,33.20
2022-11-04T05:19:15.784Z,18.90
2022-11-04T05:21:42.251Z,16.02
2022-11-04T05:24:08.689Z,16.70
2022-11-04T05:26:35.242Z,23.08
2022-11-04T05:29:01.645Z,21.10
2022-11-04T05:31:29.089Z,24.38
2022-11-04T05:33:55.465Z,16.50
2022-11-04T05:36:21.980Z,16.40
2022-11-04T05:38:52.838Z,21.50
2022-11-04T05:41:28.482Z,23.50
2022-11-04T05:43:56.445Z,17.35
2022-11-04T05:46:23.566Z,24.10
2022-11-04T05:48:50.336Z,18.58
2022-11-04T05:51:18.800Z,23.73
2022-11-04T05:53:45.396Z,21.80
2022-11-04T05:56:12.074Z,23.00
2022-11-04T05:58:38.481Z,20.13
2022-11-04T06:01:25.909Z,19.20
2022-11-04T06:03:53.406Z,25.48
2022-11-04T06:06:21.076Z,19.20
2022-11-04T06:08:47.684Z,19.27
2022-11-04T06:11:14.068Z,33.85
2022-11-04T06:13:40.486Z,26.23
2022-11-04T06:16:07.614Z,24.73
2022-11-04T06:18:33.985Z,21.27
2022-11-04T06:21:20.048Z,26.08
2022-11-04T06:23:46.457Z,21.58
2022-11-04T06:26:13.335Z,18.92
2022-11-04T06:28:39.769Z,25.08
2022-11-04T06:31:09.301Z,23.75
2022-11-04T06:33:37.170Z,20.48
2022-11-04T06:36:05.717Z,16.35
2022-11-04T06:38:34.462Z,20.50
2022-11-04T06:41:01.422Z,21.20
2022-11-04T06:43:27.946Z,21.65
2022-11-04T06:45:59.199Z,22.33
2022-11-04T06:48:26.127Z,31.17
2022-11-04T06:50:52.802Z,23.80
2022-11-04T06:53:19.328Z,21.17
2022-11-04T06:55:45.733Z,17.17
2022-11-04T06:58:12.180Z,22.00
2022-11-04T07:00:38.536Z,17.75
2022-11-04T07:03:05.027Z,20.75
2022-11-04T07:05:34.320Z,23.38
2022-11-04T07:08:00.803Z,17.13
2022-11-04T07:10:27.235Z,29.17
2022-11-04T07:12:55.036Z,28.90
2022-11-04T07:15:27.139Z,28.13
2022-11-04T07:17:54.000Z,20.55
2022-11-04T07:20:20.421Z,20.50
2022-11-04T07:22:47.007Z,22.13
2022-11-04T07:25:13.392Z,24.50
2022-11-04T07:27:39.789Z,21.80
2022-11-04T07:30:07.041Z,27.83
2022-11-04T07:32:33.457Z,24.65
2022-11-04T07:34:59.865Z,26.95
2022-11-04T07:37:26.237Z,26.48
2022-11-04T07:39:52.615Z,25.95
2022-11-04T07:42:19.360Z,17.25
2022-11-04T07:44:45.733Z,22.27
2022-11-04T07:47:12.112Z,25.35
2022-11-04T07:49:38.561Z,22.30
2022-11-04T07:52:05.253Z,23.80
2022-11-04T07:54:31.616Z,23.75
2022-11-04T07:56:58.238Z,26.40
2022-11-04T07:59:24.707Z,29.95
2022-11-04T08:01:51.227Z,27.10
2022-11-04T08:04:17.825Z,25.00
2022-11-04T08:06:44.514Z,14.68
2022-11-04T08:09:10.954Z,13.15
2022-11-04T08:11:37.422Z,18.50
2022-11-04T08:14:04.840Z,20.65
2022-11-04T08:16:34.492Z,24.40
2022-11-04T08:19:02.352Z,25.67
2022-11-04T08:21:30.201Z,21.42
2022-11-04T08:23:56.679Z,15.25
2022-11-04T08:26:23.624Z,18.25
2022-11-04T08:28:50.791Z,13.38
2022-11-04T08:31:17.146Z,21.63
2022-11-04T08:33:44.524Z,20.05
2022-11-04T08:36:15.130Z,13.88
2022-11-04T08:38:41.532Z,20.75
2022-11-04T08:41:09.530Z,14.15
2022-11-04T08:43:36.185Z,22.73
2022-11-04T08:46:05.068Z,20.63
2022-11-04T08:48:31.798Z,40.55
2022-11-04T08:50:58.920Z,28.20
2022-11-04T08:53:25.552Z,16.63
2022-11-04T08:55:52.139Z,16.05
2022-11-04T08:58:18.618Z,16.83
2022-11-04T09:00:44.975Z,23.48
2022-11-04T09:03:11.732Z,19.92
2022-11-04T09:05:47.304Z,25.65
2022-11-04T09:08:17.780Z,25.70
2022-11-04T09:10:46.119Z,29.95
2022-11-04T09:13:13.493Z,20.52
2022-11-04T09:15:42.237Z,17.77
2022-11-04T09:18:09.013Z,21.50
2022-11-04T09:20:38.374Z,20.02
2022-11-04T09:23:05.967Z,18.05
2022-11-04T09:25:33.056Z,21.42
2022-11-04T09:27:59.851Z,18.75
2022-11-04T09:30:26.667Z,32.30
2022-11-04T09:32:53.137Z,18.27
2022-11-04T09:35:19.970Z,14.40
2022-11-04T09:37:46.929Z,21.73
2022-11-04T09:40:18.228Z,18.63
2022-11-04T09:42:59.675Z,21.52
2022-11-04T09:45:31.856Z,12.70
2022-11-04T09:48:01.557Z,19.13
2022-11-04T09:50:32.268Z,17.73
2022-11-04T09:53:08.576Z,31.00
2022-11-04T09:55:42.034Z,12.35
2022-11-04T09:58:11.800Z,21.42
2022-11-04T10:00:39.711Z,18.60
2022-11-04T10:03:22.483Z,15.25
2022-11-04T10:06:13.670Z,19.40
2022-11-04T10:11:30.642Z,14.60
2022-11-04T10:14:35.919Z,18.02
2022-11-04T10:17:20.404Z,15.38
2022-11-04T10:20:14.122Z,18.95
2022-11-04T10:22:57.331Z,18.90
2022-11-04T10:25:31.207Z,22.52
2022-11-04T10:27:58.140Z,16.92
2022-11-04T10:30:25.778Z,23.95
2022-11-04T10:32:59.646Z,17.98
2022-11-04T10:35:30.612Z,14.60
2022-11-04T10:40:29.135Z,18.40
2022-11-04T10:42:58.455Z,17.70
2022-11-04T10:45:31.422Z,18.58
2022-11-04T10:48:03.662Z,28.08
2022-11-04T10:50:48.947Z,19.08
2022-11-04T10:53:33.729Z,21.42
2022-11-04T10:56:09.436Z,24.30
2022-11-04T10:58:41.412Z,15.27
2022-11-04T11:01:31.091Z,25.90
2022-11-04T11:03:58.539Z,27.25
2022-11-04T11:06:26.776Z,18.75
2022-11-04T11:08:56.768Z,21.23
2022-11-04T11:11:47.350Z,28.05
2022-11-04T11:14:30.991Z,23.10
2022-11-04T11:17:17.255Z,22.40
2022-11-04T11:19:55.243Z,27.85
2022-11-04T11:22:38.028Z,19.45
2022-11-04T11:25:13.558Z,24.27
2022-11-04T11:27:41.654Z,16.92
2022-11-04T11:30:20.024Z,20.48
2022-11-04T11:32:53.261Z,29.83
2022-11-04T11:35:22.471Z,25.77
2022-11-04T11:37:48.995Z,20.75
2022-11-04T11:40:27.071Z,17.77
2022-11-04T11:42:53.761Z,23.83
2022-11-04T11:45:20.467Z,22.65
2022-11-04T11:47:47.801Z,21.08
2022-11-04T11:50:18.053Z,25.42
2022-11-04T11:52:46.333Z,33.67
2022-11-04T11:55:28.964Z,25.75
2022-11-04T12:01:21.941Z,21.00
2022-11-04T12:09:41.752Z,23.08
2022-11-04T12:12:19.661Z,18.80
2022-11-04T12:15:05.743Z,18.50
2022-11-04T12:17:51.877Z,27.20
2022-11-04T12:20:37.041Z,36.20
2022-11-04T12:23:24.891Z,18.08
2022-11-04T12:26:06.001Z,25.80
2022-11-04T12:31:10.679Z,17.95
2022-11-04T12:33:44.852Z,15.30
2022-11-04T12:36:14.171Z,17.75
2022-11-04T12:39:04.993Z,16.88
2022-11-04T12:42:06.291Z,19.40
2022-11-04T12:44:34.764Z,19.52
2022-11-04T12:47:19.588Z,18.17
2022-11-04T12:49:45.923Z,24.83
2022-11-04T12:52:44.343Z,18.05
2022-11-04T12:55:43.839Z,18.25
2022-11-04T12:58:25.755Z,18.40
2022-11-04T13:01:01.876Z,15.32
2022-11-04T13:03:42.669Z,17.00
2022-11-04T13:06:17.404Z,18.83
2022-11-04T13:08:55.888Z,21.92
2022-11-04T13:11:45.558Z,45.33
2022-11-04T13:14:35.403Z,24.52
2022-11-04T13:17:06.459Z,76.03
2022-11-04T13:24:38.530Z,23.90
2022-11-04T13:27:16.241Z,23.45
2022-11-04T13:29:43.057Z,23.17
2022-11-04T13:32:26.911Z,18.92
2022-11-04T13:35:08.451Z,18.30
2022-11-04T13:37:47.857Z,17.02
2022-11-04T13:40:21.269Z,18.30
2022-11-04T13:43:38.275Z,18.35
2022-11-04T13:46:29.799Z,25.30
2022-11-04T13:49:30.439Z,22.63
2022-11-04T13:52:11.281Z,24.55
2022-11-04T13:55:06.439Z,20.52
2022-11-04T13:57:51.857Z,24.15
2022-11-04T14:00:25.910Z,21.50
2022-11-04T14:03:00.222Z,19.05
2022-11-04T14:05:29.839Z,21.23
2022-11-04T14:08:01.962Z,18.85
2022-11-04T14:11:00.251Z,12.77
2022-11-04T14:13:29.689Z,13.43
2022-11-04T14:16:02.142Z,13.32
2022-11-04T14:18:33.819Z,25.13
2022-11-04T14:21:10.438Z,18.58
2022-11-04T14:23:38.605Z,27.17
2022-11-04T14:26:07.470Z,15.68
2022-11-04T14:28:34.289Z,13.95
2022-11-04T14:31:17.402Z,20.25
2022-11-04T14:33:57.738Z,16.85
2022-11-04T14:36:24.951Z,16.10
2022-11-04T14:39:00.701Z,15.35
2022-11-04T14:41:56.103Z,22.75
2022-11-04T14:44:37.940Z,19.35
2022-11-04T14:47:17.426Z,18.33
2022-11-04T14:49:51.164Z,21.63
2022-11-04T14:52:33.415Z,15.07
2022-11-04T14:55:11.926Z,16.65
2022-11-04T14:57:41.318Z,20.17
2022-11-04T15:00:23.986Z,20.70
2022-11-04T15:03:35.555Z,20.70
2022-11-04T15:06:04.302Z,19.08
2022-11-04T15:08:34.785Z,17.95
2022-11-04T15:11:47.007Z,19.00
2022-11-04T15:14:24.271Z,18.50
2022-11-04T15:16:53.479Z,17.33
2022-11-04T15:19:29.018Z,28.52
2022-11-04T15:21:55.584Z,18.63
2022-11-04T15:24:22.320Z,19.40
2022-11-04T15:26:50.918Z,19.83
2022-11-04T15:29:18.961Z,15.40
2022-11-04T15:31:57.716Z,18.98
2022-11-04T15:34:25.715Z,25.27
2022-11-04T15:36:55.315Z,17.42
2022-11-04T15:39:29.596Z,25.63
2022-11-04T15:42:17.140Z,31.67
2022-11-04T15:44:55.045Z,23.45
2022-11-04T15:47:27.167Z,18.27
2022-11-04T15:49:54.702Z,23.45
2022-11-04T15:52:24.182Z,25.15
2022-11-04T15:54:53.185Z,20.45
2022-11-04T15:57:25.672Z,28.27
2022-11-04T15:59:52.688Z,23.55
2022-11-04T16:02:28.520Z,27.40
2022-11-04T16:05:22.527Z,26.83
2022-11-04T16:07:51.572Z,23.73
2022-11-04T16:10:36.578Z,26.63
2022-11-04T16:13:24.128Z,22.65
2022-11-04T16:15:58.559Z,22.15
2022-11-04T16:18:39.766Z,25.25
2022-11-04T16:21:13.116Z,24.38
2022-11-04T16:23:48.500Z,24.25
2022-11-04T16:26:15.214Z,26.45
2022-11-04T16:28:42.358Z,23.80
2022-11-04T16:31:25.000Z,40.63
2022-11-04T16:33:51.717Z,35.80
2022-11-04T16:36:24.503Z,32.72
2022-11-04T16:38:59.059Z,37.65
2022-11-04T16:41:27.400Z,29.92
2022-11-04T16:43:54.449Z,28.75
2022-11-04T16:46:22.198Z,25.02
2022-11-04T16:48:49.482Z,35.53
2022-11-04T16:51:18.649Z,39.50
2022-11-04T16:53:48.675Z,45.80
2022-11-04T16:56:16.249Z,45.67
2022-11-04T16:58:42.640Z,40.83
2022-11-04T17:01:13.180Z,35.38
2022-11-04T17:03:43.253Z,42.35
2022-11-04T17:06:14.451Z,66.45
2022-11-04T17:08:41.954Z,57.00
2022-11-04T17:11:09.671Z,56.17
2022-11-04T17:13:36.866Z,85.40
2022-11-04T17:16:04.258Z,80.82
2022-11-04T17:18:31.786Z,76.85
2022-11-04T17:20:58.943Z,58.05
2022-11-04T17:23:25.309Z,59.45
2022-11-04T17:25:51.863Z,54.97
2022-11-04T17:28:18.279Z,57.38
2022-11-04T17:30:45.017Z,62.95
2022-11-04T17:33:16.152Z,49.83
2022-11-04T17:35:44.302Z,51.45
2022-11-04T17:38:11.927Z,64.00
2022-11-04T17:40:59.086Z,49.70
2022-11-04T17:43:44.551Z,64.82
2022-11-04T17:46:30.279Z,78.22
2022-11-04T17:48:57.037Z,67.03
2022-11-04T17:51:23.475Z,74.40
2022-11-04T17:53:49.989Z,68.05
2022-11-04T17:56:22.128Z,69.63
2022-11-04T17:58:49.387Z,60.65
2022-11-04T18:01:18.005Z,73.25
2022-11-04T18:03:44.592Z,80.68
2022-11-04T18:06:11.178Z,82.15
2022-11-04T18:08:38.161Z,81.55
2022-11-04T18:11:08.067Z,88.63
2022-11-04T18:13:34.956Z,73.22
2022-11-04T18:16:14.421Z,73.60
2022-11-04T18:18:40.976Z,81.13
2022-11-04T18:21:08.430Z,78.60
2022-11-04T18:23:34.939Z,74.03
2022-11-04T18:26:02.799Z,75.45
2022-11-04T18:28:29.319Z,89.20
2022-11-04T18:30:55.697Z,89.25
2022-11-04T18:33:22.068Z,85.80
2022-11-04T18:35:48.448Z,95.43
2022-11-04T18:38:14.903Z,90.55
2022-11-04T18:40:41.257Z,82.57
2022-11-04T18:43:11.283Z,100.20
2022-11-04T18:45:37.945Z,88.88
2022-11-04T18:48:04.813Z,87.32
2022-11-04T18:50:31.850Z,87.28
2022-11-04T18:52:58.243Z,97.43
2022-11-04T18:55:24.634Z,99.95
2022-11-04T18:57:54.963Z,98.55
2022-11-04T19:00:21.379Z,81.25
2022-11-04T19:02:48.468Z,85.80
2022-11-04T19:05:14.929Z,93.07
2022-11-04T19:07:42.167Z,92.50
2022-11-04T19:10:08.911Z,100.43
2022-11-04T19:12:53.881Z,86.03
2022-11-04T19:15:20.407Z,83.15
2022-11-04T19:17:47.201Z,87.18
2022-11-04T19:20:14.449Z,76.80
2022-11-04T19:22:41.190Z,80.15
2022-11-04T19:25:08.390Z,76.15
2022-11-04T19:27:34.889Z,81.50
2022-11-04T19:30:01.295Z,71.47
2022-11-04T19:32:27.757Z,85.05
2022-11-04T19:34:54.179Z,87.68
2022-11-04T19:37:20.584Z,79.97
2022-11-04T19:39:46.984Z,87.93
2022-11-04T19:42:31.960Z,81.95
2022-11-04T19:44:58.348Z,86.32
2022-11-04T19:47:24.784Z,100.88
2022-11-04T19:49:51.314Z,88.40
2022-11-04T19:52:18.486Z,100.05
2022-11-04T19:54:44.898Z,103.15
2022-11-04T19:57:11.424Z,101.80
2022-11-04T19:59:37.966Z,127.53
2022-11-04T20:02:04.454Z,104.93
2022-11-04T20:04:30.960Z,110.15
2022-11-04T20:06:57.484Z,100.55
2022-11-04T20:09:25.821Z,111.40
2022-11-04T20:12:10.874Z,100.78
2022-11-04T20:14:37.279Z,97.90
2022-11-04T20:17:06.364Z,105.90
2022-11-04T20:19:33.035Z,109.93
2022-11-04T20:21:59.636Z,110.53
2022-11-04T20:24:26.057Z,109.43
2022-11-04T20:26:52.668Z,109.82
2022-11-04T20:29:19.063Z,112.25
2022-11-04T20:31:45.474Z,109.20
2022-11-04T20:34:13.328Z,113.28
2022-11-04T20:36:40.236Z,110.05
2022-11-04T20:39:14.535Z,104.53
2022-11-04T20:41:41.541Z,105.65
2022-11-04T20:44:10.006Z,99.28
2022-11-04T20:46:36.707Z,92.28
2022-11-04T20:49:03.756Z,89.57
2022-11-04T20:51:32.196Z,98.43
2022-11-04T20:54:00.902Z,109.30
2022-11-04T20:56:31.230Z,109.20
2022-11-04T20:58:59.657Z,124.05
2022-11-04T21:01:32.204Z,97.93
2022-11-04T21:04:00.543Z,81.18
2022-11-04T21:06:27.956Z,71.25
2022-11-04T21:08:54.393Z,68.20
2022-11-04T21:11:20.776Z,74.25
2022-11-04T21:13:47.270Z,72.05
2022-11-04T21:16:14.419Z,55.83
2022-11-04T21:18:40.824Z,60.47
2022-11-04T21:21:08.536Z,51.05
2022-11-04T21:23:35.076Z,53.85
2022-11-04T21:26:14.901Z,49.10
2022-11-04T21:28:41.564Z,54.67
2022-11-04T21:31:10.079Z,52.80
2022-11-04T21:33:36.646Z,46.50
2022-11-04T21:36:05.661Z,46.00
2022-11-04T21:38:32.335Z,50.72
2022-11-04T21:41:07.347Z,44.78
2022-11-04T21:43:33.751Z,41.50
2022-11-04T21:46:02.452Z,40.88
2022-11-04T21:48:30.413Z,42.90
2022-11-04T21:51:00.690Z,33.80
2022-11-04T21:53:28.968Z,36.67
2022-11-04T21:55:55.981Z,37.03
2022-11-04T21:58:24.598Z,34.47
2022-11-04T22:00:55.809Z,35.53
2022-11-04T22:03:22.726Z,33.85
2022-11-04T22:06:05.255Z,29.70
2022-11-04T22:08:33.465Z,31.95
2022-11-04T22:11:20.160Z,34.25
2022-11-04T22:13:47.266Z,28.65
2022-11-04T22:16:15.505Z,35.28
2022-11-04T22:18:43.132Z,35.83
2022-11-04T22:21:14.132Z,33.03
2022-11-04T22:26:24.356Z,31.08
2022-11-04T22:28:51.760Z,32.25
2022-11-04T22:31:23.173Z,32.17
2022-11-04T22:33:50.969Z,32.00
2022-11-04T22:36:17.823Z,38.72
2022-11-04T22:38:45.292Z,39.95
2022-11-04T22:41:21.852Z,37.53
2022-11-04T22:43:49.264Z,38.85
2022-11-04T22:46:19.801Z,38.38
2022-11-04T22:48:46.772Z,43.90
2022-11-04T22:51:14.096Z,35.45
2022-11-04T22:53:41.340Z,38.08
2022-11-04T22:56:12.094Z,35.55
2022-11-04T22:58:39.262Z,36.70
2022-11-04T23:01:10.274Z,36.10
2022-11-04T23:06:06.365Z,43.63
2022-11-04T23:08:35.097Z,40.95
2022-11-04T23:11:29.777Z,42.85
2022-11-04T23:14:20.614Z,35.53
2022-11-04T23:17:09.294Z,37.90
2022-11-04T23:19:39.997Z,37.00
2022-11-04T23:22:40.365Z,35.60
2022-11-04T23:25:12.320Z,43.25
2022-11-04T23:28:03.235Z,46.17
2022-11-04T23:30:33.795Z,41.20
2022-11-04T23:33:03.717Z,38.83
2022-11-04T23:35:58.165Z,46.65
2022-11-04T23:38:26.174Z,49.92
2022-11-04T23:41:15.033Z,46.55
2022-11-04T23:43:42.604Z,54.05
2022-11-04T23:46:28.631Z,62.92
2022-11-04T23:49:14.686Z,58.58
2022-11-04T23:52:00.595Z,53.50
2022-11-04T23:54:46.192Z,54.03
2022-11-04T23:57:53.123Z,64.13
